createdAt,value
2023-03-22T00:00:15.440Z,13.02
2023-03-22T00:02:41.849Z,12.30
2023-03-22T00:05:08.812Z,13.13
2023-03-22T00:07:35.170Z,12.23
2023-03-22T00:10:02.130Z,12.25
2023-03-22T00:12:28.490Z,12.63
2023-03-22T00:14:55.083Z,12.07
2023-03-22T00:17:22.958Z,12.73
2023-03-22T00:19:49.400Z,13.00
2023-03-22T00:22:16.121Z,12.35
2023-03-22T00:24:42.469Z,12.52
2023-03-22T00:27:08.854Z,13.10
2023-03-22T00:29:35.371Z,13.18
2023-03-22T00:32:01.833Z,13.43
2023-03-22T00:34:32.042Z,13.10
2023-03-22T00:36:59.694Z,12.05
2023-03-22T00:39:26.901Z,13.88
2023-03-22T00:41:53.322Z,13.20
2023-03-22T00:44:19.748Z,14.30
2023-03-22T00:46:46.209Z,14.45
2023-03-22T00:49:13.974Z,13.07
2023-03-22T00:51:40.343Z,13.25
2023-03-22T00:54:06.957Z,13.23
2023-03-22T00:56:33.891Z,13.73
2023-03-22T00:59:07.799Z,14.35
2023-03-22T01:01:34.247Z,13.20
2023-03-22T01:04:03.016Z,13.18
2023-03-22T01:06:30.530Z,13.32
2023-03-22T01:08:57.219Z,13.50
2023-03-22T01:11:24.083Z,13.57
2023-03-22T01:13:50.859Z,13.60
2023-03-22T01:16:17.706Z,13.95
2023-03-22T01:18:44.701Z,14.35
2023-03-22T01:21:11.203Z,13.13
2023-03-22T01:23:38.054Z,13.77
2023-03-22T01:26:05.324Z,14.73
2023-03-22T01:28:31.718Z,14.52
2023-03-22T01:31:02.361Z,14.25
2023-03-22T01:33:28.929Z,14.18
2023-03-22T01:35:55.454Z,15.40
2023-03-22T01:38:22.196Z,14.35
2023-03-22T01:40:53.715Z,15.90
2023-03-22T01:43:20.764Z,15.95
2023-03-22T01:45:49.895Z,13.88
2023-03-22T01:48:26.259Z,14.45
2023-03-22T01:51:03.178Z,14.70
2023-03-22T01:53:38.651Z,15.23
2023-03-22T01:56:07.519Z,15.00
2023-03-22T01:58:36.837Z,14.90
2023-03-22T02:01:07.615Z,16.92
2023-03-22T02:04:02.668Z,15.27
2023-03-22T02:06:38.090Z,15.50
2023-03-22T02:09:12.346Z,15.05
2023-03-22T02:11:42.987Z,14.85
2023-03-22T02:15:03.762Z,15.15
2023-03-22T02:18:11.353Z,14.18
2023-03-22T02:21:17.715Z,14.63
2023-03-22T02:24:13.577Z,15.95
2023-03-22T02:27:10.447Z,14.88
2023-03-22T02:29:56.767Z,14.52
2023-03-22T02:32:47.701Z,14.88
2023-03-22T02:35:33.564Z,16.00
2023-03-22T02:38:27.184Z,13.95
2023-03-22T02:41:08.833Z,14.98
2023-03-22T02:44:02.104Z,14.88
2023-03-22T02:46:46.474Z,14.55
2023-03-22T02:49:26.966Z,14.63
2023-03-22T02:52:17.499Z,14.80
2023-03-22T02:55:07.612Z,15.07
2023-03-22T02:57:47.961Z,15.25
2023-03-22T03:00:18.357Z,14.13
2023-03-22T03:03:00.093Z,13.40
2023-03-22T03:05:30.814Z,14.57
2023-03-22T03:08:01.295Z,13.82
2023-03-22T03:10:29.098Z,15.02
2023-03-22T03:12:55.475Z,14.25
2023-03-22T03:15:23.559Z,15.20
2023-03-22T03:18:11.440Z,14.65
2023-03-22T03:21:00.495Z,16.10
2023-03-22T03:24:09.410Z,14.60
2023-03-22T03:26:44.848Z,13.50
2023-03-22T03:29:30.901Z,14.15
2023-03-22T03:32:21.297Z,14.55
2023-03-22T03:34:54.922Z,14.68
2023-03-22T03:37:33.869Z,13.82
2023-03-22T03:40:08.358Z,13.85
2023-03-22T03:42:42.223Z,13.65
2023-03-22T03:45:09.652Z,13.50
2023-03-22T03:47:38.763Z,13.95
2023-03-22T03:50:06.350Z,14.13
2023-03-22T03:52:33.002Z,12.95
2023-03-22T03:54:59.805Z,13.30
2023-03-22T03:57:31.264Z,12.93
2023-03-22T03:59:57.790Z,13.60
2023-03-22T04:02:41.283Z,12.70
2023-03-22T04:05:14.890Z,12.68
2023-03-22T04:07:41.699Z,12.48
2023-03-22T04:10:08.787Z,11.98
2023-03-22T04:12:35.646Z,11.82
2023-03-22T04:15:12.517Z,11.07
2023-03-22T04:17:40.573Z,11.23
2023-03-22T04:20:10.803Z,11.57
2023-03-22T04:22:38.546Z,11.10
2023-03-22T04:25:06.509Z,10.77
2023-03-22T04:27:33.020Z,10.30
2023-03-22T04:30:02.672Z,10.40
2023-03-22T04:32:51.827Z,10.57
2023-03-22T04:35:24.009Z,10.45
2023-03-22T04:37:53.661Z,10.90
2023-03-22T04:40:21.539Z,9.95
2023-03-22T04:42:58.868Z,9.65
2023-03-22T04:45:36.193Z,10.50
2023-03-22T04:48:07.686Z,10.10
2023-03-22T04:50:34.798Z,10.45
2023-03-22T04:53:03.708Z,10.13
2023-03-22T04:55:31.625Z,9.70
2023-03-22T04:57:58.273Z,9.48
2023-03-22T05:00:24.725Z,10.32
2023-03-22T05:02:52.007Z,9.55
2023-03-22T05:05:27.573Z,9.57
2023-03-22T05:07:54.454Z,9.80
2023-03-22T05:10:21.039Z,9.45
2023-03-22T05:12:47.819Z,9.57
2023-03-22T05:15:23.410Z,9.70
2023-03-22T05:17:51.307Z,9.15
2023-03-22T05:20:17.704Z,9.73
2023-03-22T05:22:50.394Z,9.90
2023-03-22T05:25:18.410Z,10.85
2023-03-22T05:27:45.834Z,10.10
2023-03-22T05:30:31.128Z,9.23
2023-03-22T05:33:04.711Z,9.85
2023-03-22T05:35:39.143Z,10.18
2023-03-22T05:38:08.081Z,10.25
2023-03-22T05:40:36.742Z,9.98
2023-03-22T05:43:03.191Z,9.60
2023-03-22T05:45:31.628Z,10.43
2023-03-22T05:48:33.165Z,10.20
2023-03-22T05:50:59.820Z,10.48
2023-03-22T05:53:31.751Z,10.05
2023-03-22T05:56:09.796Z,9.27
2023-03-22T05:58:37.017Z,7.90
2023-03-22T06:01:10.983Z,8.25
2023-03-22T06:03:48.327Z,8.65
2023-03-22T06:06:23.814Z,8.50
2023-03-22T06:09:15.994Z,7.80
2023-03-22T06:11:43.571Z,7.70
2023-03-22T06:14:10.469Z,8.38
2023-03-22T06:16:51.966Z,8.00
2023-03-22T06:19:18.698Z,7.70
2023-03-22T06:21:45.257Z,7.72
2023-03-22T06:24:14.302Z,7.45
2023-03-22T06:26:40.793Z,6.85
2023-03-22T06:29:07.267Z,7.00
2023-03-22T06:31:33.745Z,7.80
2023-03-22T06:34:05.961Z,7.55
2023-03-22T06:36:37.445Z,7.35
2023-03-22T06:39:17.525Z,7.85
2023-03-22T06:41:45.527Z,8.55
2023-03-22T06:44:12.449Z,8.00
2023-03-22T06:46:51.030Z,7.35
2023-03-22T06:49:36.006Z,7.47
2023-03-22T06:52:03.533Z,7.85
2023-03-22T06:54:30.450Z,7.10
2023-03-22T06:56:56.910Z,7.20
2023-03-22T06:59:23.342Z,8.32
2023-03-22T07:01:49.873Z,7.30
2023-03-22T07:04:16.462Z,7.75
2023-03-22T07:06:44.910Z,7.82
2023-03-22T07:09:11.466Z,7.97
2023-03-22T07:11:38.189Z,7.93
2023-03-22T07:14:04.693Z,7.90
2023-03-22T07:16:48.883Z,8.73
2023-03-22T07:19:18.394Z,7.20
2023-03-22T07:21:44.796Z,8.70
2023-03-22T07:24:13.513Z,8.38
2023-03-22T07:26:41.091Z,7.75
2023-03-22T07:29:13.316Z,9.02
2023-03-22T07:31:40.119Z,8.85
2023-03-22T07:34:28.868Z,8.15
2023-03-22T07:37:04.612Z,8.38
2023-03-22T07:39:31.633Z,8.43
2023-03-22T07:42:06.694Z,8.93
2023-03-22T07:44:42.710Z,9.27
2023-03-22T07:47:39.523Z,10.18
2023-03-22T07:50:38.432Z,9.70
2023-03-22T07:53:05.877Z,10.38
2023-03-22T07:55:32.275Z,9.93
2023-03-22T07:57:58.629Z,10.20
2023-03-22T08:00:25.128Z,10.68
2023-03-22T08:03:14.535Z,9.90
2023-03-22T08:06:02.574Z,10.68
2023-03-22T08:08:28.972Z,10.32
2023-03-22T08:10:55.693Z,10.68
2023-03-22T08:13:22.167Z,10.98
2023-03-22T08:15:48.590Z,11.20
2023-03-22T08:18:17.299Z,11.50
2023-03-22T08:20:45.614Z,11.30
2023-03-22T08:23:17.526Z,11.68
2023-03-22T08:26:06.648Z,11.35
2023-03-22T08:28:33.200Z,11.05
2023-03-22T08:30:59.576Z,11.20
2023-03-22T08:33:26.359Z,10.57
2023-03-22T08:35:52.893Z,11.98
2023-03-22T08:38:19.579Z,12.40
2023-03-22T08:40:51.651Z,13.30
2023-03-22T08:43:21.999Z,12.23
2023-03-22T08:45:48.622Z,11.70
2023-03-22T08:48:16.740Z,11.48
2023-03-22T08:50:58.401Z,11.85
2023-03-22T08:53:34.725Z,11.20
2023-03-22T08:56:22.556Z,10.85
2023-03-22T08:59:00.669Z,10.27
2023-03-22T09:01:37.152Z,11.32
2023-03-22T09:04:05.761Z,9.70
2023-03-22T09:06:32.439Z,10.48
2023-03-22T09:08:58.875Z,9.52
2023-03-22T09:11:25.700Z,9.82
2023-03-22T09:13:52.379Z,8.73
2023-03-22T09:16:19.870Z,9.68
2023-03-22T09:18:47.128Z,8.88
2023-03-22T09:21:21.816Z,8.50
2023-03-22T09:24:11.215Z,8.02
2023-03-22T09:26:44.333Z,8.25
2023-03-22T09:29:10.827Z,8.30
2023-03-22T09:31:39.711Z,7.60
2023-03-22T09:34:16.177Z,7.35
2023-03-22T09:36:42.683Z,7.13
2023-03-22T09:39:10.177Z,7.00
2023-03-22T09:41:46.124Z,7.03
2023-03-22T09:44:19.782Z,7.10
2023-03-22T09:46:52.011Z,6.72
2023-03-22T09:49:22.986Z,6.63
2023-03-22T09:51:51.551Z,6.47
2023-03-22T09:54:32.148Z,6.40
2023-03-22T09:57:33.980Z,6.07
2023-03-22T10:00:12.424Z,6.03
2023-03-22T10:02:57.834Z,6.28
2023-03-22T10:05:32.048Z,6.20
2023-03-22T10:08:25.291Z,6.40
2023-03-22T10:10:52.658Z,5.38
2023-03-22T10:13:45.414Z,5.40
2023-03-22T10:16:19.860Z,4.80
2023-03-22T10:18:51.151Z,5.00
2023-03-22T10:21:19.227Z,4.40
2023-03-22T10:23:51.304Z,4.28
2023-03-22T10:26:31.149Z,4.10
2023-03-22T10:29:21.898Z,4.03
2023-03-22T10:31:48.371Z,4.15
2023-03-22T10:34:24.650Z,4.07
2023-03-22T10:36:52.650Z,3.90
2023-03-22T10:39:28.176Z,4.10
2023-03-22T10:42:02.176Z,4.38
2023-03-22T10:44:30.781Z,4.25
2023-03-22T10:47:02.280Z,3.90
2023-03-22T10:49:33.433Z,3.63
2023-03-22T10:52:09.078Z,3.58
2023-03-22T10:54:36.632Z,3.42
2023-03-22T10:57:03.424Z,3.28
2023-03-22T10:59:51.069Z,3.20
2023-03-22T11:02:29.424Z,3.10
2023-03-22T11:05:05.773Z,3.40
2023-03-22T11:07:43.689Z,3.08
2023-03-22T11:10:10.045Z,2.63
2023-03-22T11:12:40.755Z,3.00
2023-03-22T11:15:19.037Z,3.20
2023-03-22T11:17:45.466Z,2.88
2023-03-22T11:20:19.124Z,2.95
2023-03-22T11:22:47.934Z,2.70
2023-03-22T11:25:26.672Z,2.83
2023-03-22T11:28:05.775Z,3.90
2023-03-22T11:30:33.424Z,2.60
2023-03-22T11:33:09.296Z,3.08
2023-03-22T11:35:38.284Z,3.08
2023-03-22T11:38:05.243Z,3.10
2023-03-22T11:40:34.838Z,3.17
2023-03-22T11:43:19.330Z,2.72
2023-03-22T11:45:50.364Z,3.28
2023-03-22T11:48:23.397Z,2.70
2023-03-22T11:50:53.501Z,3.30
2023-03-22T11:53:24.427Z,2.85
2023-03-22T11:55:54.494Z,3.10
2023-03-22T11:58:28.248Z,2.83
2023-03-22T12:01:02.150Z,3.00
2023-03-22T12:03:38.942Z,2.95
2023-03-22T12:06:24.212Z,3.20
2023-03-22T12:09:00.281Z,3.63
2023-03-22T12:11:36.043Z,3.85
2023-03-22T12:14:27.976Z,3.85
2023-03-22T12:17:02.290Z,3.40
2023-03-22T12:19:51.842Z,3.58
2023-03-22T12:22:22.845Z,3.85
2023-03-22T12:24:49.218Z,3.25
2023-03-22T12:27:20.679Z,3.95
2023-03-22T12:29:56.526Z,4.07
2023-03-22T12:32:30.747Z,3.65
2023-03-22T12:35:09.209Z,4.50
2023-03-22T12:37:42.701Z,4.28
2023-03-22T12:40:28.462Z,4.03
2023-03-22T12:43:06.106Z,4.05
2023-03-22T12:45:40.470Z,3.65
2023-03-22T12:48:16.029Z,3.80
2023-03-22T12:50:51.234Z,3.83
2023-03-22T12:53:19.892Z,3.70
2023-03-22T12:55:48.154Z,3.65
2023-03-22T12:58:25.877Z,3.58
2023-03-22T13:00:57.941Z,4.30
2023-03-22T13:03:36.570Z,5.13
2023-03-22T13:06:41.442Z,5.82
2023-03-22T13:09:17.542Z,7.07
2023-03-22T13:11:46.960Z,8.38
2023-03-22T13:14:57.478Z,8.10
2023-03-22T13:17:27.973Z,8.68
2023-03-22T13:20:21.375Z,9.60
2023-03-22T13:22:47.701Z,9.32
2023-03-22T13:25:18.697Z,10.15
2023-03-22T13:27:45.055Z,12.15
2023-03-22T13:30:19.482Z,11.05
2023-03-22T13:33:08.664Z,9.70
2023-03-22T13:35:50.931Z,9.65
2023-03-22T13:38:25.220Z,9.32
2023-03-22T13:40:59.301Z,8.82
2023-03-22T13:43:34.508Z,8.65
2023-03-22T13:46:26.539Z,8.30
2023-03-22T13:49:02.510Z,9.88
2023-03-22T13:51:32.150Z,9.88
2023-03-22T13:54:18.535Z,9.02
2023-03-22T13:57:00.712Z,9.98
2023-03-22T13:59:27.698Z,8.70
2023-03-22T14:01:59.345Z,10.32
2023-03-22T14:04:30.028Z,9.50
2023-03-22T14:06:59.933Z,10.60
2023-03-22T14:09:56.797Z,8.82
2023-03-22T14:12:45.084Z,9.57
2023-03-22T14:15:17.212Z,8.63
2023-03-22T14:17:53.707Z,8.05
2023-03-22T14:20:24.694Z,7.57
